Time;durP1;ratioP1;P1;durP2;ratioP2;P2;SDS_P1;SDS_P2;PMS_P1;PMS_P2;Temp;Humidity;BMP_temperature;BMP_pressure;BME280_temperature;BME280_humidity;BME280_pressure;Samples;Min_cycle;Max_cycle;Signal;HPM_P1;HPM_P2
2024/03/12 00:00:45;;;;;;;;;;;8.80;85.40;;;;;;5071522;28;19924;-70
2024/03/12 00:03:11;;;;;;;;;;;8.90;85.30;;;;;;5071747;28;20011;-71
2024/03/12 00:05:37;;;;;;;;;;;8.90;84.60;;;;;;5054000;28;19924;-73
2024/03/12 00:08:03;;;;;;;;;;;8.90;85.10;;;;;;5071865;28;19966;-73
2024/03/12 00:10:29;;;;;;;;;;;8.90;84.40;;;;;;5071668;28;20411;-73
2024/03/12 00:12:56;;;;;;;;;;;8.90;84.90;;;;;;5071373;28;19916;-73
2024/03/12 00:15:23;;;;;;;;;;;8.90;84.40;;;;;;5073268;28;19928;-73
2024/03/12 00:17:51;;;;;;;;;;;8.90;84.70;;;;;;5072942;28;19924;-71
2024/03/12 00:20:17;;;;;;;;;;;8.90;84.70;;;;;;5071150;28;20438;-73
2024/03/12 00:23:05;;;;;;;;;;;9.00;84.60;;;;;;5072721;28;20427;-71
2024/03/12 00:25:31;;;;;;;;;;;9.00;84.40;;;;;;5071789;28;19932;-71
2024/03/12 00:27:58;;;;;;;;;;;9.00;84.40;;;;;;5072888;28;19917;-71
2024/03/12 00:30:25;;;;;;;;;;;9.00;84.40;;;;;;5072237;28;19932;-70
2024/03/12 00:33:10;;;;;;;;;;;9.00;84.40;;;;;;5071534;28;19960;-73
2024/03/12 00:35:36;;;;;;;;;;;9.00;84.30;;;;;;5072756;28;20377;-71
2024/03/12 00:38:05;;;;;;;;;;;9.00;84.40;;;;;;5071553;28;20179;-73
2024/03/12 00:40:36;;;;;;;;;;;9.00;84.00;;;;;;5070851;28;19924;-73
2024/03/12 00:43:03;;;;;;;;;;;9.00;84.10;;;;;;5071178;28;19924;-71
2024/03/12 00:48:14;;;;;;;;;;;9.00;83.70;;;;;;5071418;28;19923;-73
2024/03/12 00:50:40;;;;;;;;;;;9.00;83.80;;;;;;5070662;28;19924;-71
2024/03/12 00:53:07;;;;;;;;;;;9.00;83.30;;;;;;5072068;28;19959;-73
2024/03/12 00:55:35;;;;;;;;;;;9.00;84.00;;;;;;5072456;28;19927;-73
2024/03/12 00:58:04;;;;;;;;;;;8.90;84.10;;;;;;5072064;28;20191;-70
2024/03/12 01:00:33;;;;;;;;;;;9.00;83.90;;;;;;5071625;28;19924;-72
2024/03/12 01:03:00;;;;;;;;;;;9.00;83.40;;;;;;5071973;28;20407;-71
2024/03/12 01:05:30;;;;;;;;;;;8.90;84.10;;;;;;5070712;28;20380;-72
2024/03/12 01:08:01;;;;;;;;;;;8.90;84.00;;;;;;5070684;28;19959;-73
2024/03/12 01:10:48;;;;;;;;;;;8.90;84.00;;;;;;5053900;28;20038;-72
2024/03/12 01:13:15;;;;;;;;;;;8.80;84.40;;;;;;5072513;28;19958;-71
2024/03/12 01:15:41;;;;;;;;;;;8.70;84.90;;;;;;5072568;28;20324;-71
2024/03/12 01:18:08;;;;;;;;;;;8.70;85.10;;;;;;5072150;28;19965;-71
2024/03/12 01:20:34;;;;;;;;;;;8.70;85.30;;;;;;5070489;28;20301;-71
2024/03/12 01:23:01;;;;;;;;;;;8.70;84.80;;;;;;5070137;28;20385;-73
2024/03/12 01:25:29;;;;;;;;;;;8.70;85.40;;;;;;5072550;28;20362;-71
2024/03/12 01:27:59;;;;;;;;;;;8.70;85.30;;;;;;5070918;28;19917;-73
2024/03/12 01:30:30;;;;;;;;;;;8.70;85.20;;;;;;5070282;28;20015;-72
2024/03/12 01:32:57;;;;;;;;;;;8.70;84.90;;;;;;5071935;28;19917;-71
2024/03/12 01:35:30;;;;;;;;;;;8.80;84.80;;;;;;5054259;28;19966;-70
2024/03/12 01:37:57;;;;;;;;;;;8.80;84.20;;;;;;5070863;28;20015;-72
2024/03/12 01:40:25;;;;;;;;;;;8.80;84.60;;;;;;5071499;28;19932;-70
2024/03/12 01:43:10;;;;;;;;;;;8.80;84.30;;;;;;5072000;28;19940;-73
2024/03/12 01:45:36;;;;;;;;;;;8.80;84.30;;;;;;5054050;28;19936;-71
2024/03/12 01:48:22;;;;;;;;;;;8.80;83.90;;;;;;5070458;28;19920;-71
2024/03/12 01:50:49;;;;;;;;;;;8.80;84.60;;;;;;5071447;28;19954;-72
2024/03/12 01:53:15;;;;;;;;;;;8.80;84.40;;;;;;5070521;28;19917;-71
2024/03/12 01:55:44;;;;;;;;;;;8.80;83.80;;;;;;5070699;28;19917;-71
2024/03/12 01:58:12;;;;;;;;;;;8.80;84.40;;;;;;5070430;28;19925;-72
2024/03/12 02:00:38;;;;;;;;;;;8.80;84.30;;;;;;5070021;28;19946;-71
2024/03/12 02:03:04;;;;;;;;;;;8.80;84.30;;;;;;5071383;28;20007;-72
2024/03/12 02:05:30;;;;;;;;;;;8.90;84.30;;;;;;5070374;28;19929;-71
2024/03/12 02:07:56;;;;;;;;;;;8.90;84.20;;;;;;5071946;28;19963;-71
2024/03/12 02:10:24;;;;;;;;;;;8.90;83.50;;;;;;5069923;28;19940;-73
2024/03/12 02:12:50;;;;;;;;;;;8.90;83.90;;;;;;5071703;28;20436;-71
2024/03/12 02:18:04;;;;;;;;;;;8.90;83.60;;;;;;5070728;28;19931;-72
2024/03/12 02:20:29;;;;;;;;;;;8.90;83.80;;;;;;5069860;28;19997;-71
2024/03/12 02:22:55;;;;;;;;;;;8.90;83.90;;;;;;5070135;28;19920;-73
2024/03/12 02:25:22;;;;;;;;;;;8.80;83.80;;;;;;5071459;28;20292;-73
2024/03/12 02:27:48;;;;;;;;;;;8.90;83.90;;;;;;5053249;28;20274;-71
2024/03/12 02:30:14;;;;;;;;;;;8.90;83.90;;;;;;5069279;28;19942;-71
2024/03/12 02:32:40;;;;;;;;;;;8.80;83.50;;;;;;5071165;28;19927;-71
2024/03/12 02:37:50;;;;;;;;;;;8.80;84.10;;;;;;5075212;28;19973;-71
2024/03/12 02:40:18;;;;;;;;;;;8.70;84.40;;;;;;5073331;28;20312;-71
2024/03/12 02:42:44;;;;;;;;;;;8.70;84.80;;;;;;5057176;28;19966;-71
2024/03/12 02:45:14;;;;;;;;;;;8.70;84.20;;;;;;5073667;28;19920;-72
2024/03/12 02:47:41;;;;;;;;;;;8.70;84.90;;;;;;5074907;28;19920;-72
2024/03/12 02:50:08;;;;;;;;;;;8.60;85.00;;;;;;5074117;28;19925;-71
2024/03/12 02:52:35;;;;;;;;;;;8.60;85.30;;;;;;5074611;28;19930;-73
2024/03/12 02:55:00;;;;;;;;;;;8.60;85.70;;;;;;5074993;28;19935;-72
2024/03/12 02:57:27;;;;;;;;;;;8.60;85.60;;;;;;5074637;28;19924;-72
2024/03/12 02:59:53;;;;;;;;;;;8.60;85.40;;;;;;5073468;28;19964;-71
2024/03/12 03:02:19;;;;;;;;;;;8.60;85.50;;;;;;5072806;28;19935;-73
2024/03/12 03:04:45;;;;;;;;;;;8.70;85.40;;;;;;5073263;28;20299;-73
2024/03/12 03:07:11;;;;;;;;;;;8.70;85.20;;;;;;5073255;28;19916;-71
2024/03/12 03:09:37;;;;;;;;;;;8.70;85.00;;;;;;5074371;28;19931;-71
2024/03/12 03:12:03;;;;;;;;;;;8.70;84.70;;;;;;5073512;28;19927;-71
2024/03/12 03:14:29;;;;;;;;;;;8.80;83.90;;;;;;5074180;28;20417;-71
2024/03/12 03:16:55;;;;;;;;;;;8.80;84.50;;;;;;5074138;28;19936;-71
2024/03/12 03:19:22;;;;;;;;;;;8.80;84.30;;;;;;5074217;28;20411;-71
2024/03/12 03:21:49;;;;;;;;;;;8.80;84.20;;;;;;5073762;28;19928;-71
2024/03/12 03:24:14;;;;;;;;;;;8.80;84.20;;;;;;5072777;28;19952;-73
2024/03/12 03:26:40;;;;;;;;;;;8.80;84.50;;;;;;5072935;28;19950;-71
2024/03/12 03:29:06;;;;;;;;;;;8.80;84.60;;;;;;5072995;28;19920;-71
2024/03/12 03:31:32;;;;;;;;;;;8.70;84.80;;;;;;5073241;28;19924;-71
2024/03/12 03:33:58;;;;;;;;;;;8.70;84.80;;;;;;5073590;28;19922;-73
2024/03/12 03:36:28;;;;;;;;;;;8.70;84.80;;;;;;5072478;28;19923;-73
2024/03/12 03:38:53;;;;;;;;;;;8.80;84.50;;;;;;5072264;28;19920;-71
2024/03/12 03:41:19;;;;;;;;;;;8.80;84.40;;;;;;5071863;28;19927;-71
2024/03/12 03:43:45;;;;;;;;;;;8.70;84.70;;;;;;5073722;28;19917;-73
2024/03/12 03:46:11;;;;;;;;;;;8.70;85.00;;;;;;5073178;28;19954;-73
2024/03/12 03:48:37;;;;;;;;;;;8.70;84.80;;;;;;5072516;28;20462;-73
2024/03/12 03:51:03;;;;;;;;;;;8.80;84.40;;;;;;5071770;28;19925;-73
2024/03/12 03:53:29;;;;;;;;;;;8.80;84.20;;;;;;5073643;28;19943;-71
2024/03/12 03:55:55;;;;;;;;;;;8.80;84.40;;;;;;5072439;28;19920;-72
2024/03/12 03:58:24;;;;;;;;;;;8.70;84.70;;;;;;5055543;28;19931;-71
2024/03/12 04:00:50;;;;;;;;;;;8.70;85.00;;;;;;5055289;28;19924;-71
2024/03/12 04:03:17;;;;;;;;;;;8.60;85.10;;;;;;5073465;28;19967;-73
2024/03/12 04:05:43;;;;;;;;;;;8.60;85.00;;;;;;5055127;28;19925;-73
2024/03/12 04:08:09;;;;;;;;;;;8.60;84.60;;;;;;5073068;28;19974;-71
2024/03/12 04:10:35;;;;;;;;;;;8.70;85.30;;;;;;5072852;28;19947;-73
2024/03/12 04:13:00;;;;;;;;;;;8.60;85.50;;;;;;5071650;28;19923;-71
2024/03/12 04:15:28;;;;;;;;;;;8.60;85.80;;;;;;5072942;28;20274;-71
2024/03/12 04:17:54;;;;;;;;;;;8.50;86.00;;;;;;5072937;28;19920;-73
2024/03/12 04:20:21;;;;;;;;;;;8.60;85.30;;;;;;5071159;28;19944;-73
2024/03/12 04:22:47;;;;;;;;;;;8.60;85.70;;;;;;5071520;28;20019;-73
2024/03/12 04:25:13;;;;;;;;;;;8.60;84.80;;;;;;5071478;28;20289;-73
2024/03/12 04:27:40;;;;;;;;;;;8.60;85.10;;;;;;5072894;28;19995;-73
2024/03/12 04:30:09;;;;;;;;;;;8.60;85.30;;;;;;5070916;28;19925;-71
2024/03/12 04:32:35;;;;;;;;;;;8.60;85.30;;;;;;5072841;28;19916;-73
2024/03/12 04:37:50;;;;;;;;;;;8.60;85.20;;;;;;5071671;28;19924;-73
2024/03/12 04:40:19;;;;;;;;;;;8.60;85.00;;;;;;5072005;28;19951;-72
2024/03/12 04:42:45;;;;;;;;;;;8.70;85.00;;;;;;5072728;28;19920;-73
2024/03/12 04:45:11;;;;;;;;;;;8.70;84.90;;;;;;5054677;28;20066;-72
2024/03/12 04:47:40;;;;;;;;;;;8.70;84.70;;;;;;5071102;28;19916;-73
2024/03/12 04:50:07;;;;;;;;;;;8.70;84.70;;;;;;5071914;28;19933;-71
2024/03/12 04:52:33;;;;;;;;;;;8.70;84.70;;;;;;5072499;28;20384;-71
2024/03/12 04:55:00;;;;;;;;;;;8.80;84.60;;;;;;5071980;28;20011;-73
2024/03/12 04:57:25;;;;;;;;;;;8.70;84.40;;;;;;5070844;28;19917;-72
2024/03/12 04:59:51;;;;;;;;;;;8.70;84.50;;;;;;5070905;28;19935;-71
2024/03/12 05:02:18;;;;;;;;;;;8.80;84.50;;;;;;5071536;28;20234;-73
2024/03/12 05:04:44;;;;;;;;;;;8.70;84.40;;;;;;5070457;28;20019;-73
2024/03/12 05:07:11;;;;;;;;;;;8.70;84.50;;;;;;5072208;28;19916;-71
2024/03/12 05:09:37;;;;;;;;;;;8.70;84.70;;;;;;5072173;28;19932;-73
2024/03/12 05:12:04;;;;;;;;;;;8.70;84.90;;;;;;5053428;28;20309;-71
2024/03/12 05:14:30;;;;;;;;;;;8.70;84.20;;;;;;5054160;28;19928;-71
2024/03/12 05:16:58;;;;;;;;;;;8.60;84.90;;;;;;5070810;28;20264;-71
2024/03/12 05:19:25;;;;;;;;;;;8.60;85.10;;;;;;5071744;28;19959;-71
2024/03/12 05:21:51;;;;;;;;;;;8.60;84.90;;;;;;5071543;28;19966;-71
2024/03/12 05:24:17;;;;;;;;;;;8.70;84.90;;;;;;5070441;28;19924;-71
2024/03/12 05:26:44;;;;;;;;;;;8.70;84.80;;;;;;5071759;28;19916;-73
2024/03/12 05:29:11;;;;;;;;;;;8.70;84.60;;;;;;5070367;28;19923;-73
2024/03/12 05:31:38;;;;;;;;;;;8.70;84.70;;;;;;5053004;28;19921;-71
2024/03/12 05:34:16;;;;;;;;;;;8.70;84.70;;;;;;5071661;28;20295;-73
2024/03/12 05:36:47;;;;;;;;;;;8.70;84.50;;;;;;5071540;28;20399;-71
2024/03/12 05:50:16;;;;;;;;;;;8.70;84.90;;;;;;5071054;28;19931;-71
2024/03/12 05:53:02;;;;;;;;;;;8.70;85.70;;;;;;5053777;28;19921;-72
2024/03/12 05:55:28;;;;;;;;;;;8.60;85.00;;;;;;5071617;28;19932;-71
2024/03/12 05:57:54;;;;;;;;;;;8.50;85.80;;;;;;5071471;28;19920;-72
2024/03/12 06:00:20;;;;;;;;;;;8.40;86.40;;;;;;5069616;28;19924;-73
2024/03/12 06:02:46;;;;;;;;;;;8.40;86.90;;;;;;5071631;28;19923;-72
2024/03/12 06:05:12;;;;;;;;;;;8.30;87.30;;;;;;5071258;28;20395;-73
2024/03/12 06:07:42;;;;;;;;;;;8.30;87.00;;;;;;5071482;28;20418;-71
2024/03/12 06:10:08;;;;;;;;;;;8.30;87.60;;;;;;5073342;28;19924;-73
2024/03/12 06:12:34;;;;;;;;;;;8.30;87.80;;;;;;5075184;28;19923;-72
2024/03/12 06:15:00;;;;;;;;;;;8.30;88.20;;;;;;5074158;28;19925;-73
2024/03/12 06:17:26;;;;;;;;;;;8.30;88.00;;;;;;5073923;28;20011;-71
2024/03/12 06:19:52;;;;;;;;;;;8.30;88.10;;;;;;5073749;28;19937;-73
2024/03/12 06:22:18;;;;;;;;;;;8.40;88.10;;;;;;5073353;28;19927;-70
2024/03/12 06:24:47;;;;;;;;;;;8.40;88.10;;;;;;5073695;28;20023;-71
2024/03/12 06:27:15;;;;;;;;;;;8.40;87.90;;;;;;5073763;28;19916;-73
2024/03/12 06:29:42;;;;;;;;;;;8.40;87.90;;;;;;5057153;28;20031;-73
2024/03/12 06:32:09;;;;;;;;;;;8.40;87.60;;;;;;5074450;28;19978;-71
2024/03/12 06:34:35;;;;;;;;;;;8.50;87.40;;;;;;5075102;28;20385;-71
2024/03/12 06:37:01;;;;;;;;;;;8.50;87.40;;;;;;5073442;28;19917;-71
2024/03/12 06:39:33;;;;;;;;;;;8.50;87.40;;;;;;5073206;28;20043;-71
2024/03/12 06:42:07;;;;;;;;;;;8.50;87.40;;;;;;5073207;28;19999;-72
2024/03/12 06:44:53;;;;;;;;;;;8.50;87.50;;;;;;5057993;28;19929;-72
2024/03/12 06:47:19;;;;;;;;;;;8.50;87.80;;;;;;5073496;28;19945;-73
2024/03/12 06:49:45;;;;;;;;;;;8.50;87.90;;;;;;5056676;28;19963;-73
2024/03/12 06:52:11;;;;;;;;;;;8.50;87.20;;;;;;5073809;28;20372;-73
2024/03/12 06:54:37;;;;;;;;;;;8.50;87.50;;;;;;5074810;28;20372;-71
2024/03/12 06:57:04;;;;;;;;;;;8.60;87.40;;;;;;5073626;28;19923;-71
2024/03/12 06:59:32;;;;;;;;;;;8.70;87.10;;;;;;5074480;28;19982;-71
2024/03/12 07:01:59;;;;;;;;;;;8.70;86.70;;;;;;5073123;28;19924;-73
2024/03/12 07:04:34;;;;;;;;;;;8.80;86.50;;;;;;5073156;28;20384;-71
2024/03/12 07:07:19;;;;;;;;;;;8.80;86.40;;;;;;5074251;28;19990;-71
2024/03/12 07:09:45;;;;;;;;;;;8.90;86.10;;;;;;5074579;28;19978;-73
2024/03/12 07:12:14;;;;;;;;;;;8.90;85.80;;;;;;5072315;28;19924;-71
2024/03/12 07:14:45;;;;;;;;;;;9.00;85.80;;;;;;5074125;28;19925;-71
2024/03/12 07:17:14;;;;;;;;;;;9.00;85.50;;;;;;5074024;28;20327;-71
2024/03/12 07:19:40;;;;;;;;;;;9.10;85.20;;;;;;5073302;28;19993;-70
2024/03/12 07:22:07;;;;;;;;;;;9.10;85.00;;;;;;5073395;28;19920;-71
2024/03/12 07:24:52;;;;;;;;;;;9.10;85.20;;;;;;5073902;28;19990;-69
2024/03/12 07:27:18;;;;;;;;;;;9.10;85.00;;;;;;5073856;28;19962;-73
2024/03/12 07:29:44;;;;;;;;;;;9.20;85.00;;;;;;5073895;28;19920;-73
2024/03/12 07:32:10;;;;;;;;;;;9.20;84.40;;;;;;5071825;28;19924;-71
2024/03/12 07:34:39;;;;;;;;;;;9.20;84.80;;;;;;5073816;28;20395;-72
2024/03/12 07:37:06;;;;;;;;;;;9.20;84.60;;;;;;5072565;28;19968;-73
2024/03/12 07:39:34;;;;;;;;;;;9.20;84.20;;;;;;5072195;28;19920;-71
2024/03/12 07:42:09;;;;;;;;;;;9.20;84.70;;;;;;5073306;28;19935;-73
2024/03/12 07:44:36;;;;;;;;;;;9.40;84.10;;;;;;5072271;28;20210;-71
2024/03/12 07:47:03;;;;;;;;;;;9.50;83.60;;;;;;5072130;28;19925;-71
2024/03/12 07:49:32;;;;;;;;;;;9.70;83.30;;;;;;5072296;28;19943;-69
2024/03/12 07:54:45;;;;;;;;;;;9.90;81.80;;;;;;5073682;28;19921;-71
2024/03/12 07:57:11;;;;;;;;;;;10.00;81.70;;;;;;5073306;28;19920;-71
2024/03/12 07:59:37;;;;;;;;;;;10.00;80.90;;;;;;5055245;28;19924;-69
2024/03/12 08:02:12;;;;;;;;;;;10.10;81.20;;;;;;5071554;28;20401;-69
2024/03/12 08:04:42;;;;;;;;;;;10.20;79.90;;;;;;5073324;28;19927;-71
2024/03/12 08:07:10;;;;;;;;;;;10.30;79.70;;;;;;5055581;28;20296;-73
2024/03/12 08:09:37;;;;;;;;;;;10.40;79.80;;;;;;5073230;28;19924;-71
2024/03/12 08:12:03;;;;;;;;;;;10.40;79.30;;;;;;5071221;28;19929;-69
2024/03/12 08:14:31;;;;;;;;;;;10.40;78.10;;;;;;5072903;28;20280;-71
2024/03/12 08:19:43;;;;;;;;;;;10.50;78.20;;;;;;5071801;28;19928;-69
2024/03/12 08:22:09;;;;;;;;;;;10.50;77.60;;;;;;5070966;28;19924;-71
2024/03/12 08:24:37;;;;;;;;;;;10.50;77.90;;;;;;5071507;28;19970;-71
2024/03/12 08:27:04;;;;;;;;;;;10.50;77.90;;;;;;5071439;28;19931;-71
2024/03/12 08:29:30;;;;;;;;;;;10.50;78.50;;;;;;5054577;28;19970;-69
2024/03/12 08:31:56;;;;;;;;;;;10.60;78.50;;;;;;5071497;28;19978;-71
2024/03/12 08:34:22;;;;;;;;;;;10.80;78.60;;;;;;5071114;28;20209;-69
2024/03/12 08:36:49;;;;;;;;;;;10.90;78.60;;;;;;5071172;28;19920;-69
2024/03/12 08:39:16;;;;;;;;;;;11.00;78.50;;;;;;5072314;28;19920;-71
2024/03/12 08:41:42;;;;;;;;;;;11.10;78.30;;;;;;5070514;28;19928;-71
2024/03/12 08:44:08;;;;;;;;;;;11.10;77.90;;;;;;5070936;28;20007;-71
2024/03/12 08:46:37;;;;;;;;;;;11.10;77.50;;;;;;5070994;28;19928;-71
2024/03/12 08:49:06;;;;;;;;;;;11.30;77.70;;;;;;5072190;28;20269;-72
2024/03/12 08:54:16;;;;;;;;;;;11.20;77.10;;;;;;5071004;28;19928;-73
2024/03/12 08:56:42;;;;;;;;;;;11.30;77.20;;;;;;5072218;28;20157;-73
2024/03/12 08:59:08;;;;;;;;;;;11.20;76.10;;;;;;5072034;28;20007;-69
2024/03/12 09:01:34;;;;;;;;;;;11.10;76.80;;;;;;5070412;28;19963;-70
2024/03/12 09:04:02;;;;;;;;;;;11.10;76.90;;;;;;5071844;28;19916;-70
2024/03/12 09:06:28;;;;;;;;;;;11.10;76.70;;;;;;5054144;28;19966;-71
2024/03/12 09:08:54;;;;;;;;;;;11.30;77.40;;;;;;5070616;28;20277;-71
2024/03/12 09:11:20;;;;;;;;;;;11.30;76.90;;;;;;5069979;28;20392;-70
2024/03/12 09:13:47;;;;;;;;;;;11.20;75.60;;;;;;5070266;28;20132;-71
2024/03/12 09:16:14;;;;;;;;;;;11.10;75.70;;;;;;5070861;28;19924;-69
2024/03/12 09:18:58;;;;;;;;;;;11.10;76.40;;;;;;5070598;28;19926;-70
2024/03/12 09:21:25;;;;;;;;;;;11.10;76.30;;;;;;5070037;28;19924;-69
2024/03/12 09:23:51;;;;;;;;;;;11.10;76.40;;;;;;5071692;28;19924;-69
2024/03/12 09:26:18;;;;;;;;;;;11.10;77.40;;;;;;5071747;28;19924;-68
2024/03/12 09:28:44;;;;;;;;;;;11.10;76.70;;;;;;5070532;28;20400;-69
2024/03/12 09:31:10;;;;;;;;;;;11.20;76.40;;;;;;5069726;28;19931;-69
2024/03/12 09:33:36;;;;;;;;;;;11.10;75.60;;;;;;5071665;28;19916;-69
2024/03/12 09:36:03;;;;;;;;;;;11.10;76.00;;;;;;5053859;28;19921;-69
2024/03/12 09:38:30;;;;;;;;;;;11.20;76.70;;;;;;5071540;28;19999;-70
2024/03/12 09:40:59;;;;;;;;;;;11.10;76.40;;;;;;5071021;28;19949;-70
2024/03/12 09:43:28;;;;;;;;;;;11.10;76.70;;;;;;5053258;28;19916;-69
2024/03/12 09:45:56;;;;;;;;;;;11.20;76.40;;;;;;5053597;28;19924;-70
2024/03/12 09:48:22;;;;;;;;;;;11.10;75.90;;;;;;5070117;28;20084;-69
2024/03/12 09:53:32;;;;;;;;;;;11.20;76.30;;;;;;5071542;28;19977;-71
2024/03/12 09:55:59;;;;;;;;;;;11.20;76.10;;;;;;5071893;28;19951;-69
2024/03/12 09:58:25;;;;;;;;;;;11.30;75.90;;;;;;5071326;28;20155;-69
2024/03/12 10:00:53;;;;;;;;;;;11.40;75.40;;;;;;5069726;28;19925;-71
2024/03/12 10:03:19;;;;;;;;;;;11.50;74.80;;;;;;5070058;28;19942;-69
2024/03/12 10:05:46;;;;;;;;;;;11.60;74.10;;;;;;5070112;28;19952;-71
2024/03/12 10:08:31;;;;;;;;;;;11.60;73.90;;;;;;5070025;28;20312;-69
2024/03/12 10:10:57;;;;;;;;;;;11.80;74.80;;;;;;5070782;28;20332;-71
2024/03/12 10:13:23;;;;;;;;;;;12.00;74.30;;;;;;5071004;28;19927;-71
2024/03/12 10:16:09;;;;;;;;;;;12.10;73.60;;;;;;5070197;28;19921;-68
2024/03/12 10:21:22;;;;;;;;;;;12.20;72.60;;;;;;5070896;28;19970;-69
2024/03/12 10:23:48;;;;;;;;;;;12.40;72.20;;;;;;5069814;28;19946;-69
2024/03/12 10:29:20;;;;;;;;;;;12.90;70.80;;;;;;5071062;28;19928;-71
2024/03/12 10:31:46;;;;;;;;;;;13.10;70.60;;;;;;5070612;28;19931;-71
2024/03/12 10:34:17;;;;;;;;;;;13.30;69.30;;;;;;5069725;28;19969;-69
2024/03/12 10:36:44;;;;;;;;;;;13.40;69.30;;;;;;5071100;28;20425;-69
2024/03/12 10:39:29;;;;;;;;;;;13.50;68.50;;;;;;5053248;28;19967;-69
2024/03/12 10:41:56;;;;;;;;;;;13.60;66.60;;;;;;5052511;28;20286;-69
2024/03/12 10:44:23;;;;;;;;;;;13.60;67.70;;;;;;5069531;28;19943;-71
2024/03/12 10:46:48;;;;;;;;;;;13.70;67.80;;;;;;5052888;28;19924;-71
2024/03/12 10:49:17;;;;;;;;;;;13.70;67.30;;;;;;5069503;28;19921;-71
2024/03/12 10:51:44;;;;;;;;;;;13.70;67.60;;;;;;5069015;28;19933;-71
2024/03/12 10:54:16;;;;;;;;;;;13.70;67.60;;;;;;5069973;28;19920;-71
2024/03/12 10:57:03;;;;;;;;;;;13.70;67.90;;;;;;5073484;28;19920;-71
2024/03/12 10:59:31;;;;;;;;;;;13.80;67.00;;;;;;5073134;28;19990;-69
2024/03/12 11:01:58;;;;;;;;;;;13.80;66.20;;;;;;5072508;28;19956;-71
2024/03/12 11:04:24;;;;;;;;;;;13.80;66.20;;;;;;5072919;28;19920;-68
2024/03/12 11:06:51;;;;;;;;;;;13.80;66.00;;;;;;5056374;28;20015;-71
2024/03/12 11:12:03;;;;;;;;;;;13.90;66.60;;;;;;5072458;28;19927;-69
2024/03/12 11:14:29;;;;;;;;;;;13.80;65.20;;;;;;5072877;28;19936;-71
2024/03/12 11:16:55;;;;;;;;;;;13.90;65.60;;;;;;5072809;28;20380;-69
2024/03/12 11:19:40;;;;;;;;;;;13.90;64.70;;;;;;5072656;28;20389;-69
2024/03/12 11:22:10;;;;;;;;;;;14.00;64.70;;;;;;5072285;28;19977;-69
2024/03/12 11:24:55;;;;;;;;;;;14.20;65.10;;;;;;5072658;28;19925;-68
2024/03/12 11:27:27;;;;;;;;;;;14.30;63.30;;;;;;5072642;28;19923;-69
2024/03/12 11:32:57;;;;;;;;;;;14.40;63.60;;;;;;5072301;28;19932;-72
2024/03/12 11:35:23;;;;;;;;;;;14.50;63.40;;;;;;5072459;28;19929;-72
2024/03/12 11:38:08;;;;;;;;;;;14.60;63.00;;;;;;5073672;28;19923;-72
2024/03/12 11:40:37;;;;;;;;;;;14.60;62.80;;;;;;5071960;28;20015;-70
2024/03/12 11:43:03;;;;;;;;;;;14.70;61.30;;;;;;5072257;28;19943;-69
2024/03/12 11:45:48;;;;;;;;;;;14.80;61.40;;;;;;5072186;28;19924;-71
2024/03/12 11:48:51;;;;;;;;;;;14.90;60.80;;;;;;5072287;28;20377;-72
2024/03/12 11:51:18;;;;;;;;;;;15.00;60.30;;;;;;5073143;28;20475;-69
2024/03/12 11:53:45;;;;;;;;;;;15.10;60.60;;;;;;5072045;28;19916;-72
2024/03/12 11:58:57;;;;;;;;;;;15.50;58.00;;;;;;5073409;28;19962;-68
2024/03/12 12:04:15;;;;;;;;;;;15.80;57.80;;;;;;5073178;28;19946;-69
2024/03/12 12:06:43;;;;;;;;;;;15.90;57.30;;;;;;5071231;28;19921;-70
2024/03/12 12:09:10;;;;;;;;;;;16.10;57.30;;;;;;5071789;28;19963;-69
2024/03/12 12:11:37;;;;;;;;;;;16.10;56.10;;;;;;5072586;28;20343;-71
2024/03/12 12:14:08;;;;;;;;;;;16.10;56.30;;;;;;5071596;28;19928;-70
2024/03/12 12:16:35;;;;;;;;;;;16.20;57.20;;;;;;5071808;28;19916;-72
2024/03/12 12:19:21;;;;;;;;;;;16.30;56.50;;;;;;5072799;28;19964;-71
2024/03/12 12:21:47;;;;;;;;;;;16.30;55.70;;;;;;5054733;28;20385;-72
2024/03/12 12:24:13;;;;;;;;;;;16.30;55.60;;;;;;5054748;28;19931;-72
2024/03/12 12:26:39;;;;;;;;;;;16.90;55.00;;;;;;5072771;28;20456;-69
2024/03/12 12:29:07;;;;;;;;;;;17.30;53.40;;;;;;5071359;28;19921;-70
2024/03/12 12:31:35;;;;;;;;;;;17.50;52.60;;;;;;5070829;28;19931;-71
2024/03/12 12:34:02;;;;;;;;;;;17.60;52.80;;;;;;5071302;28;19917;-72
2024/03/12 12:36:30;;;;;;;;;;;17.60;51.00;;;;;;5071280;28;19921;-69
2024/03/12 12:38:58;;;;;;;;;;;17.50;51.60;;;;;;5054553;28;20438;-72
2024/03/12 12:41:24;;;;;;;;;;;17.90;51.30;;;;;;5054033;28;19931;-69
2024/03/12 12:46:54;;;;;;;;;;;17.70;51.80;;;;;;5071314;28;19935;-71
2024/03/12 12:49:22;;;;;;;;;;;17.50;50.80;;;;;;5070978;28;19925;-71
2024/03/12 12:51:48;;;;;;;;;;;17.30;50.00;;;;;;5070486;28;20011;-71
2024/03/12 12:54:18;;;;;;;;;;;17.30;50.00;;;;;;5070853;28;19931;-71
2024/03/12 12:56:46;;;;;;;;;;;17.40;51.70;;;;;;5054878;28;19921;-71
2024/03/12 12:59:13;;;;;;;;;;;17.30;51.60;;;;;;5054326;28;19923;-74
2024/03/12 13:01:39;;;;;;;;;;;17.10;50.80;;;;;;5053653;28;19928;-74
2024/03/12 13:04:25;;;;;;;;;;;17.00;49.50;;;;;;5070612;28;20007;-74
2024/03/12 13:06:53;;;;;;;;;;;17.00;50.80;;;;;;5071958;28;19974;-71
2024/03/12 13:09:33;;;;;;;;;;;17.20;51.20;;;;;;5070851;28;19924;-74
2024/03/12 13:12:00;;;;;;;;;;;18.00;49.80;;;;;;5069986;28;19927;-71
2024/03/12 13:14:26;;;;;;;;;;;18.90;48.00;;;;;;5072030;28;19924;-71
2024/03/12 13:16:52;;;;;;;;;;;19.70;44.30;;;;;;5070706;28;19916;-74
2024/03/12 13:19:18;;;;;;;;;;;19.40;41.90;;;;;;5053825;28;19947;-69
2024/03/12 13:21:44;;;;;;;;;;;19.50;39.90;;;;;;5071223;28;20455;-70
2024/03/12 13:24:11;;;;;;;;;;;20.10;41.40;;;;;;5070501;28;20018;-69
2024/03/12 13:26:37;;;;;;;;;;;20.50;38.60;;;;;;5071884;28;19918;-74
2024/03/12 13:29:05;;;;;;;;;;;20.70;39.60;;;;;;5070517;28;19943;-71
2024/03/12 13:31:31;;;;;;;;;;;21.70;37.40;;;;;;5069669;28;19920;-71
2024/03/12 13:33:57;;;;;;;;;;;21.10;36.00;;;;;;5070067;28;19923;-69
2024/03/12 13:36:25;;;;;;;;;;;20.80;37.50;;;;;;5053574;28;20416;-68
2024/03/12 13:38:53;;;;;;;;;;;21.40;36.80;;;;;;5071670;28;19974;-75
2024/03/12 13:41:22;;;;;;;;;;;21.10;35.20;;;;;;5069838;28;19928;-69
2024/03/12 13:43:48;;;;;;;;;;;20.50;36.00;;;;;;5070574;28;20331;-68
2024/03/12 13:46:14;;;;;;;;;;;20.20;38.30;;;;;;5071906;28;20003;-73
2024/03/12 13:48:40;;;;;;;;;;;20.00;38.90;;;;;;5071440;28;19967;-74
2024/03/12 13:51:07;;;;;;;;;;;19.70;39.10;;;;;;5071127;28;19935;-74
2024/03/12 13:53:34;;;;;;;;;;;19.50;39.40;;;;;;5071487;28;19924;-74
2024/03/12 13:56:19;;;;;;;;;;;19.50;40.10;;;;;;5053692;28;19966;-72
2024/03/12 13:58:46;;;;;;;;;;;19.30;39.60;;;;;;5071341;28;19942;-74
2024/03/12 14:01:12;;;;;;;;;;;18.90;40.80;;;;;;5071123;28;19931;-71
2024/03/12 14:03:39;;;;;;;;;;;18.60;41.60;;;;;;5071593;28;20011;-70
2024/03/12 14:06:08;;;;;;;;;;;18.40;39.90;;;;;;5070134;28;20523;-74
2024/03/12 14:08:35;;;;;;;;;;;18.30;40.50;;;;;;5071625;28;20304;-74
2024/03/12 14:11:01;;;;;;;;;;;18.50;41.50;;;;;;5071034;28;20267;-74
2024/03/12 14:13:27;;;;;;;;;;;18.60;41.70;;;;;;5053360;28;20007;-74
2024/03/12 14:15:53;;;;;;;;;;;18.80;40.50;;;;;;5070084;28;20028;-71
2024/03/12 14:21:05;;;;;;;;;;;19.30;41.20;;;;;;5069809;28;20342;-74
2024/03/12 14:23:31;;;;;;;;;;;19.40;40.50;;;;;;5069904;28;19924;-74
2024/03/12 14:25:57;;;;;;;;;;;19.50;41.10;;;;;;5071184;28;20011;-70
2024/03/12 14:28:24;;;;;;;;;;;19.70;39.70;;;;;;5071056;28;19988;-74
2024/03/12 14:30:50;;;;;;;;;;;20.00;38.80;;;;;;5072585;28;19924;-74
2024/03/12 14:33:16;;;;;;;;;;;20.80;38.00;;;;;;5073699;28;20035;-71
2024/03/12 14:35:42;;;;;;;;;;;22.50;34.60;;;;;;5073666;28;20015;-71
2024/03/12 14:38:08;;;;;;;;;;;22.10;35.20;;;;;;5074902;28;20000;-74
2024/03/12 14:40:34;;;;;;;;;;;23.80;34.60;;;;;;5074454;28;19939;-72
2024/03/12 14:43:00;;;;;;;;;;;25.80;29.90;;;;;;5074623;28;20015;-71
2024/03/12 14:45:27;;;;;;;;;;;27.30;28.50;;;;;;5073441;28;20062;-71
2024/03/12 14:47:54;;;;;;;;;;;26.10;29.50;;;;;;5074654;28;20376;-74
2024/03/12 14:50:22;;;;;;;;;;;24.30;30.10;;;;;;5072972;28;20405;-70
2024/03/12 14:52:48;;;;;;;;;;;24.40;31.30;;;;;;5074416;28;20305;-69
2024/03/12 14:55:14;;;;;;;;;;;23.90;31.00;;;;;;5073167;28;20383;-71
2024/03/12 14:57:40;;;;;;;;;;;22.90;32.20;;;;;;5074515;28;20015;-71
2024/03/12 15:00:09;;;;;;;;;;;22.20;34.40;;;;;;5072665;28;19974;-71
2024/03/12 15:02:36;;;;;;;;;;;21.80;34.80;;;;;;5073255;28;20416;-71
2024/03/12 15:05:03;;;;;;;;;;;21.40;35.60;;;;;;5074371;28;19974;-74
2024/03/12 15:07:28;;;;;;;;;;;21.20;35.00;;;;;;5073034;28;19924;-70
2024/03/12 15:09:57;;;;;;;;;;;20.80;36.30;;;;;;5074419;28;20019;-71
2024/03/12 15:12:23;;;;;;;;;;;20.20;37.00;;;;;;5067234;28;19929;-74
2024/03/12 15:14:48;;;;;;;;;;;19.70;37.90;;;;;;5072483;28;20019;-71
2024/03/12 15:17:15;;;;;;;;;;;19.10;39.30;;;;;;5074209;28;20007;-74
2024/03/12 15:19:43;;;;;;;;;;;18.80;40.50;;;;;;5072716;28;19931;-71
2024/03/12 15:22:10;;;;;;;;;;;18.80;40.50;;;;;;5055813;28;19966;-74
2024/03/12 15:24:37;;;;;;;;;;;18.50;41.40;;;;;;5055973;28;19978;-74